createdAt,value
2022-10-05T00:00:19.724Z,3.35
2022-10-05T00:02:48.172Z,3.78
2022-10-05T00:05:27.154Z,3.95
2022-10-05T00:07:57.453Z,3.30
2022-10-05T00:10:24.480Z,3.40
2022-10-05T00:12:51.462Z,3.25
2022-10-05T00:15:20.966Z,3.28
2022-10-05T00:17:48.050Z,3.37
2022-10-05T00:20:19.349Z,3.35
2022-10-05T00:22:47.095Z,3.65
2022-10-05T00:25:19.343Z,3.40
2022-10-05T00:27:56.973Z,3.50
2022-10-05T00:30:26.488Z,3.20
2022-10-05T00:32:58.699Z,3.37
2022-10-05T00:35:29.285Z,3.78
2022-10-05T00:37:57.075Z,2.90
2022-10-05T00:40:46.165Z,3.30
2022-10-05T00:43:35.141Z,3.03
2022-10-05T00:46:12.154Z,3.00
2022-10-05T00:48:52.369Z,2.80
2022-10-05T00:51:30.585Z,2.75
2022-10-05T00:54:05.920Z,2.92
2022-10-05T00:56:51.057Z,2.55
2022-10-05T00:59:33.800Z,2.47
2022-10-05T01:02:11.482Z,2.78
2022-10-05T01:04:54.733Z,2.67
2022-10-05T01:07:46.747Z,2.55
2022-10-05T01:10:26.830Z,3.67
2022-10-05T01:12:56.426Z,2.83
2022-10-05T01:15:36.552Z,2.37
2022-10-05T01:18:18.499Z,2.97
2022-10-05T01:21:14.036Z,2.85
2022-10-05T01:23:57.021Z,2.28
2022-10-05T01:26:36.306Z,2.62
2022-10-05T01:29:30.978Z,1.67
2022-10-05T01:32:20.437Z,2.30
2022-10-05T01:34:53.350Z,2.30
2022-10-05T01:37:32.506Z,2.60
2022-10-05T01:40:08.440Z,2.17
2022-10-05T01:43:14.329Z,2.30
2022-10-05T01:46:19.725Z,2.83
2022-10-05T01:49:24.634Z,2.17
2022-10-05T01:52:06.569Z,2.42
2022-10-05T01:54:47.298Z,2.37
2022-10-05T01:57:38.948Z,2.42
2022-10-05T02:00:09.364Z,2.33
2022-10-05T02:02:49.236Z,2.60
2022-10-05T02:05:24.782Z,2.12
2022-10-05T02:07:57.262Z,2.03
2022-10-05T02:13:15.949Z,3.08
2022-10-05T02:16:09.261Z,2.75
2022-10-05T02:18:43.907Z,2.95
2022-10-05T02:21:11.220Z,3.50
2022-10-05T02:23:41.005Z,3.25
2022-10-05T02:26:11.748Z,4.00
2022-10-05T02:28:45.826Z,3.78
2022-10-05T02:31:16.194Z,4.25
2022-10-05T02:33:43.548Z,4.00
2022-10-05T02:36:11.198Z,4.60
2022-10-05T02:38:44.286Z,4.30
2022-10-05T02:41:30.327Z,4.32
2022-10-05T02:44:09.532Z,4.90
2022-10-05T02:46:53.095Z,3.85
2022-10-05T02:50:06.913Z,4.15
2022-10-05T02:53:07.745Z,4.32
2022-10-05T02:55:41.040Z,4.22
2022-10-05T02:58:21.225Z,3.70
2022-10-05T03:00:59.186Z,3.87
2022-10-05T03:03:39.945Z,3.75
2022-10-05T03:06:18.930Z,4.55
2022-10-05T03:09:05.681Z,3.97
2022-10-05T03:11:41.218Z,4.12
2022-10-05T03:14:14.690Z,3.80
2022-10-05T03:17:10.950Z,4.18
2022-10-05T03:19:55.865Z,3.70
2022-10-05T03:22:48.526Z,3.78
2022-10-05T03:25:34.882Z,3.60
2022-10-05T03:28:18.472Z,3.80
2022-10-05T03:30:55.878Z,3.50
2022-10-05T03:33:57.241Z,3.30
2022-10-05T03:36:37.378Z,3.00
2022-10-05T03:39:11.213Z,3.12
2022-10-05T03:44:24.321Z,3.65
2022-10-05T03:47:36.905Z,3.20
2022-10-05T03:50:13.222Z,3.33
2022-10-05T03:52:51.401Z,3.03
2022-10-05T03:55:21.746Z,3.00
2022-10-05T03:57:50.360Z,3.25
2022-10-05T04:00:20.163Z,3.08
2022-10-05T04:02:51.052Z,3.20
2022-10-05T04:05:28.782Z,3.28
2022-10-05T04:08:28.702Z,3.03
2022-10-05T04:10:58.352Z,2.78
2022-10-05T04:13:29.287Z,3.45
2022-10-05T04:16:02.833Z,2.72
2022-10-05T04:21:24.091Z,3.17
2022-10-05T04:24:06.400Z,3.47
2022-10-05T04:26:49.904Z,3.17
2022-10-05T04:29:37.782Z,2.97
2022-10-05T04:32:25.072Z,2.97
2022-10-05T04:35:11.391Z,2.70
2022-10-05T04:37:51.297Z,2.80
2022-10-05T04:40:24.497Z,2.97
2022-10-05T04:43:23.701Z,2.62
2022-10-05T04:45:56.676Z,2.90
2022-10-05T04:48:48.824Z,3.42
2022-10-05T04:51:34.595Z,2.92
2022-10-05T04:54:13.112Z,3.17
2022-10-05T04:56:53.571Z,2.80
2022-10-05T04:59:29.755Z,3.50
2022-10-05T05:02:39.556Z,2.87
2022-10-05T05:05:15.854Z,3.22
2022-10-05T05:08:06.939Z,2.80
2022-10-05T05:11:16.169Z,3.03
2022-10-05T05:13:57.910Z,3.87
2022-10-05T05:16:36.250Z,3.58
2022-10-05T05:19:04.165Z,3.83
2022-10-05T05:21:39.941Z,3.87
2022-10-05T05:24:31.472Z,4.00
2022-10-05T05:27:03.746Z,4.22
2022-10-05T05:29:37.385Z,4.75
2022-10-05T05:32:17.747Z,4.35
2022-10-05T05:35:05.167Z,5.00
2022-10-05T05:37:36.284Z,3.78
2022-10-05T05:40:26.668Z,4.05
2022-10-05T05:43:00.762Z,3.55
2022-10-05T05:45:28.055Z,3.03
2022-10-05T05:47:59.342Z,3.40
2022-10-05T05:50:45.224Z,3.58
2022-10-05T05:53:27.472Z,4.00
2022-10-05T05:56:00.674Z,4.68
2022-10-05T05:58:39.703Z,4.25
2022-10-05T06:01:32.133Z,3.35
2022-10-05T06:04:15.297Z,3.28
2022-10-05T06:06:46.800Z,3.40
2022-10-05T06:09:23.542Z,3.60
2022-10-05T06:11:57.362Z,3.75
2022-10-05T06:14:29.041Z,4.13
2022-10-05T06:17:24.133Z,4.20
2022-10-05T06:19:53.924Z,3.83
2022-10-05T06:22:29.315Z,3.53
2022-10-05T06:25:12.031Z,3.22
2022-10-05T06:28:00.330Z,3.55
2022-10-05T06:30:49.728Z,3.72
2022-10-05T06:33:43.950Z,3.90
2022-10-05T06:36:39.747Z,3.70
2022-10-05T06:40:00.052Z,3.97
2022-10-05T06:42:36.159Z,3.35
2022-10-05T06:45:18.797Z,3.37
2022-10-05T06:47:53.961Z,3.50
2022-10-05T06:50:37.110Z,3.33
2022-10-05T06:53:22.802Z,3.45
2022-10-05T06:55:56.901Z,3.80
2022-10-05T06:58:46.370Z,3.20
2022-10-05T07:01:25.809Z,3.78
2022-10-05T07:04:37.135Z,4.32
2022-10-05T07:07:07.349Z,4.70
2022-10-05T07:09:53.489Z,4.80
2022-10-05T07:12:26.408Z,4.37
2022-10-05T07:14:59.884Z,3.37
2022-10-05T07:17:50.103Z,3.67
2022-10-05T07:20:26.280Z,3.75
2022-10-05T07:23:20.030Z,3.45
2022-10-05T07:25:47.627Z,4.18
2022-10-05T07:28:58.204Z,3.85
2022-10-05T07:31:35.248Z,5.53
2022-10-05T07:34:07.113Z,4.85
2022-10-05T07:37:18.477Z,6.28
2022-10-05T07:40:08.073Z,6.95
2022-10-05T07:42:51.707Z,6.95
2022-10-05T07:47:58.686Z,6.15
2022-10-05T07:50:34.925Z,6.43
2022-10-05T07:53:06.707Z,7.28
2022-10-05T07:55:54.737Z,8.25
2022-10-05T07:58:37.244Z,7.90
2022-10-05T08:01:14.031Z,7.57
2022-10-05T08:04:01.276Z,7.40
2022-10-05T08:06:43.389Z,8.60
2022-10-05T08:09:52.489Z,7.15
2022-10-05T08:12:32.004Z,6.65
2022-10-05T08:15:15.444Z,7.85
2022-10-05T08:17:49.594Z,7.03
2022-10-05T08:20:50.783Z,5.95
2022-10-05T08:23:17.883Z,7.45
2022-10-05T08:26:22.765Z,6.75
2022-10-05T08:29:16.624Z,5.50
2022-10-05T08:31:47.045Z,6.10
2022-10-05T08:34:23.872Z,7.10
2022-10-05T08:37:03.177Z,5.18
2022-10-05T08:39:34.289Z,4.78
2022-10-05T08:42:23.544Z,9.00
2022-10-05T08:44:53.161Z,6.53
2022-10-05T08:47:50.556Z,6.20
2022-10-05T08:50:36.350Z,5.90
2022-10-05T08:53:28.429Z,6.62
2022-10-05T08:56:07.228Z,6.80
2022-10-05T08:58:40.349Z,6.80
2022-10-05T09:01:30.230Z,6.45
2022-10-05T09:04:22.678Z,5.70
2022-10-05T09:07:22.210Z,6.05
2022-10-05T09:10:18.792Z,7.00
2022-10-05T09:12:56.919Z,7.43
2022-10-05T09:15:35.102Z,6.50
2022-10-05T09:18:23.711Z,7.05
2022-10-05T09:21:09.868Z,7.68
2022-10-05T09:23:42.938Z,8.27
2022-10-05T09:26:41.744Z,8.10
2022-10-05T09:29:38.916Z,8.45
2022-10-05T09:32:18.469Z,7.65
2022-10-05T09:35:22.305Z,6.65
2022-10-05T09:38:13.384Z,8.07
2022-10-05T09:41:14.882Z,5.85
2022-10-05T09:43:57.469Z,6.90
2022-10-05T09:46:52.483Z,5.78
2022-10-05T09:49:38.249Z,6.72
2022-10-05T09:53:04.939Z,7.07
2022-10-05T09:55:47.157Z,6.07
2022-10-05T09:58:33.339Z,6.53
2022-10-05T10:01:34.259Z,5.00
2022-10-05T10:04:21.080Z,4.20
2022-10-05T10:07:25.677Z,4.03
2022-10-05T10:09:59.853Z,4.12
2022-10-05T10:15:23.986Z,3.87
2022-10-05T10:18:09.266Z,4.65
2022-10-05T10:20:45.618Z,5.25
2022-10-05T10:23:27.487Z,5.72
2022-10-05T10:25:57.790Z,5.28
2022-10-05T10:29:02.157Z,5.93
2022-10-05T10:31:29.449Z,6.10
2022-10-05T10:34:14.546Z,5.85
2022-10-05T10:37:12.370Z,5.75
2022-10-05T10:39:47.652Z,6.25
2022-10-05T10:42:49.115Z,5.15
2022-10-05T10:45:28.660Z,5.15
2022-10-05T10:48:19.197Z,4.65
2022-10-05T10:51:23.276Z,4.57
2022-10-05T10:54:20.284Z,4.47
2022-10-05T10:56:52.976Z,5.07
2022-10-05T10:59:57.976Z,4.53
2022-10-05T11:02:37.233Z,3.70
2022-10-05T11:05:23.395Z,4.45
2022-10-05T11:07:57.089Z,3.37
2022-10-05T11:10:33.033Z,4.20
2022-10-05T11:13:38.230Z,3.22
2022-10-05T11:16:30.566Z,4.50
2022-10-05T11:19:30.912Z,3.50
2022-10-05T11:22:44.295Z,3.70
2022-10-05T11:25:48.735Z,2.85
2022-10-05T11:31:06.699Z,2.87
2022-10-05T11:33:58.313Z,2.40
2022-10-05T11:36:34.377Z,2.12
2022-10-05T11:39:18.833Z,2.62
2022-10-05T11:42:00.777Z,2.47
2022-10-05T11:44:50.558Z,2.62
2022-10-05T11:47:26.676Z,2.37
2022-10-05T11:50:17.125Z,2.22
2022-10-05T11:53:13.043Z,2.53
2022-10-05T11:56:09.467Z,2.05
2022-10-05T11:58:44.072Z,2.70
2022-10-05T12:01:40.249Z,2.50
2022-10-05T12:04:33.227Z,2.28
2022-10-05T12:07:43.414Z,2.03
2022-10-05T12:10:37.405Z,2.00
2022-10-05T12:13:14.275Z,1.98
2022-10-05T12:15:48.393Z,2.15
2022-10-05T12:18:24.977Z,2.00
2022-10-05T12:20:56.721Z,2.05
2022-10-05T12:23:42.215Z,2.00
2022-10-05T12:26:15.038Z,1.90
2022-10-05T12:28:47.945Z,1.62
2022-10-05T12:31:52.144Z,1.85
2022-10-05T12:34:25.021Z,1.93
2022-10-05T12:37:03.912Z,2.20
2022-10-05T12:39:59.153Z,2.37
2022-10-05T12:42:32.353Z,2.50
2022-10-05T12:45:20.161Z,2.00
2022-10-05T12:48:05.149Z,2.00
2022-10-05T12:50:44.366Z,2.08
2022-10-05T12:53:32.953Z,2.05
2022-10-05T12:56:38.473Z,1.83
2022-10-05T12:59:08.599Z,2.10
2022-10-05T13:01:46.824Z,2.00
2022-10-05T13:04:31.201Z,3.08
2022-10-05T13:10:19.331Z,1.92
2022-10-05T13:12:53.031Z,1.95
2022-10-05T13:15:27.933Z,2.33
2022-10-05T13:18:04.101Z,1.65
2022-10-05T13:20:46.933Z,1.50
2022-10-05T13:23:25.351Z,1.85
2022-10-05T13:25:55.347Z,1.40
2022-10-05T13:28:30.865Z,1.67
2022-10-05T13:31:05.037Z,1.60
2022-10-05T13:33:53.842Z,1.70
2022-10-05T13:36:33.218Z,1.70
2022-10-05T13:39:21.559Z,1.80
2022-10-05T13:41:59.657Z,1.87
2022-10-05T13:44:46.799Z,1.90
2022-10-05T13:47:32.895Z,1.70
2022-10-05T13:50:07.518Z,1.65
2022-10-05T13:52:42.228Z,1.73
2022-10-05T13:55:35.282Z,1.65
2022-10-05T13:58:06.552Z,1.80
2022-10-05T14:00:41.625Z,1.70
2022-10-05T14:03:27.913Z,1.80
2022-10-05T14:05:59.987Z,1.58
2022-10-05T14:08:29.765Z,1.75
2022-10-05T14:10:56.906Z,1.70
2022-10-05T14:13:29.191Z,1.75
2022-10-05T14:16:13.202Z,1.70
2022-10-05T14:19:06.116Z,1.55
2022-10-05T14:21:46.127Z,1.60
2022-10-05T14:24:45.194Z,1.37
2022-10-05T14:27:27.576Z,1.60
2022-10-05T14:30:08.281Z,1.62
2022-10-05T14:32:56.227Z,1.77
2022-10-05T14:35:30.235Z,2.53
2022-10-05T14:38:00.719Z,1.90
2022-10-05T14:40:33.276Z,1.80
2022-10-05T14:43:15.941Z,2.50
2022-10-05T14:45:57.528Z,2.40
2022-10-05T14:48:29.811Z,2.65
2022-10-05T14:50:59.543Z,2.40
2022-10-05T14:53:39.553Z,2.65
2022-10-05T14:56:17.284Z,2.22
2022-10-05T14:59:00.848Z,2.58
2022-10-05T15:01:32.693Z,2.42
2022-10-05T15:04:10.148Z,2.60
2022-10-05T15:06:47.226Z,2.50
2022-10-05T15:09:26.395Z,2.80
2022-10-05T15:11:58.685Z,2.78
2022-10-05T15:14:36.929Z,3.15
2022-10-05T15:17:13.905Z,2.72
2022-10-05T15:20:02.207Z,2.70
2022-10-05T15:22:34.288Z,3.12
2022-10-05T15:25:31.298Z,3.53
2022-10-05T15:28:17.932Z,3.03
2022-10-05T15:31:01.838Z,3.10
2022-10-05T15:33:34.458Z,3.20
2022-10-05T15:36:26.426Z,4.12
2022-10-05T15:39:12.305Z,3.40
2022-10-05T15:41:47.615Z,4.28
2022-10-05T15:44:20.661Z,4.78
2022-10-05T15:46:56.466Z,4.60
2022-10-05T15:49:50.860Z,4.87
2022-10-05T15:52:26.114Z,3.65
2022-10-05T15:55:11.391Z,4.32
2022-10-05T15:58:09.557Z,4.40
2022-10-05T16:00:47.736Z,4.30
2022-10-05T16:03:40.369Z,4.97
2022-10-05T16:06:32.742Z,5.97
2022-10-05T16:09:38.544Z,6.60
2022-10-05T16:12:09.717Z,7.00
2022-10-05T16:14:55.961Z,7.90
2022-10-05T16:17:33.921Z,6.93
2022-10-05T16:20:23.113Z,7.37
2022-10-05T16:23:02.578Z,7.28
2022-10-05T16:25:39.995Z,6.87
2022-10-05T16:28:16.324Z,6.60
2022-10-05T16:30:51.671Z,6.32
2022-10-05T16:33:27.033Z,7.05
2022-10-05T16:36:12.326Z,7.28
2022-10-05T16:39:03.729Z,7.35
2022-10-05T16:41:39.264Z,7.37
2022-10-05T16:44:27.779Z,8.07
2022-10-05T16:47:27.425Z,9.20
2022-10-05T16:50:16.087Z,8.20
2022-10-05T16:52:46.026Z,8.95
2022-10-05T16:55:19.152Z,9.25
2022-10-05T16:57:55.563Z,9.95
2022-10-05T17:00:56.296Z,9.68
2022-10-05T17:04:08.814Z,8.80
2022-10-05T17:07:04.890Z,9.07
2022-10-05T17:09:47.279Z,8.70
2022-10-05T17:12:27.560Z,9.50
2022-10-05T17:15:06.372Z,9.48
2022-10-05T17:17:33.293Z,9.75
2022-10-05T17:20:29.370Z,10.88
2022-10-05T17:23:21.407Z,9.90
2022-10-05T17:26:21.381Z,9.65
2022-10-05T17:28:51.347Z,8.07
2022-10-05T17:31:28.006Z,8.65
2022-10-05T17:34:24.868Z,8.52
2022-10-05T17:37:38.023Z,9.55
2022-10-05T17:40:32.513Z,9.90
2022-10-05T17:43:01.353Z,11.10
2022-10-05T17:45:34.249Z,9.77
2022-10-05T17:48:06.116Z,9.27
2022-10-05T17:51:04.207Z,8.02
2022-10-05T17:54:02.372Z,8.90
2022-10-05T17:56:31.337Z,7.87
2022-10-05T17:59:04.239Z,8.70
2022-10-05T18:01:41.462Z,8.65
2022-10-05T18:04:11.557Z,7.55
2022-10-05T18:06:57.137Z,7.85
2022-10-05T18:09:25.960Z,8.77
2022-10-05T18:12:08.842Z,8.50
2022-10-05T18:15:14.074Z,8.82
2022-10-05T18:20:19.124Z,9.10
2022-10-05T18:22:46.793Z,9.03
2022-10-05T18:25:27.181Z,8.68
2022-10-05T18:28:12.667Z,7.93
2022-10-05T18:30:59.167Z,7.30
2022-10-05T18:33:41.365Z,8.13
2022-10-05T18:36:27.430Z,8.18
2022-10-05T18:38:59.821Z,8.32
2022-10-05T18:41:43.044Z,7.90
2022-10-05T18:44:16.084Z,8.07
2022-10-05T18:47:20.863Z,7.87
2022-10-05T18:50:00.586Z,7.55
2022-10-05T18:52:36.283Z,8.07
2022-10-05T18:55:03.392Z,9.32
2022-10-05T18:57:40.023Z,8.88
2022-10-05T19:00:10.001Z,8.50
2022-10-05T19:02:44.924Z,8.25
2022-10-05T19:05:56.613Z,9.20
2022-10-05T19:08:59.137Z,9.02
2022-10-05T19:11:59.292Z,7.85
2022-10-05T19:14:45.283Z,7.65
2022-10-05T19:17:28.579Z,7.65
2022-10-05T19:20:09.332Z,7.68
2022-10-05T19:22:53.994Z,8.00
2022-10-05T19:25:25.984Z,8.63
2022-10-05T19:28:20.601Z,7.00
2022-10-05T19:31:09.785Z,7.28
2022-10-05T19:33:58.395Z,6.65
2022-10-05T19:36:32.515Z,6.75
2022-10-05T19:39:40.603Z,6.43
2022-10-05T19:42:28.721Z,7.62
2022-10-05T19:45:23.138Z,6.25
2022-10-05T19:48:08.751Z,6.75
2022-10-05T19:50:38.441Z,6.80
2022-10-05T19:53:19.767Z,6.97
2022-10-05T19:55:47.162Z,6.65
2022-10-05T19:58:25.968Z,6.62
2022-10-05T20:01:00.970Z,7.62
2022-10-05T20:03:30.303Z,7.32
2022-10-05T20:06:01.957Z,8.38
2022-10-05T20:08:39.409Z,7.57
2022-10-05T20:11:15.240Z,6.72
2022-10-05T20:14:06.720Z,6.35
2022-10-05T20:16:53.902Z,6.80
2022-10-05T20:19:36.237Z,6.20
2022-10-05T20:22:26.368Z,6.15
2022-10-05T20:25:18.105Z,6.18
2022-10-05T20:28:03.316Z,6.53
2022-10-05T20:30:48.994Z,6.07
2022-10-05T20:33:34.512Z,6.18
2022-10-05T20:36:20.366Z,6.15
2022-10-05T20:39:05.720Z,6.65
2022-10-05T20:41:51.740Z,6.28
2022-10-05T20:44:37.886Z,6.43
2022-10-05T20:47:24.285Z,6.25
2022-10-05T20:49:53.410Z,6.25
2022-10-05T20:52:21.428Z,6.05
2022-10-05T20:54:55.824Z,5.90
2022-10-05T20:57:24.237Z,6.50
2022-10-05T20:59:51.517Z,6.35
2022-10-05T21:02:19.549Z,6.12
2022-10-05T21:04:47.761Z,6.20
2022-10-05T21:07:16.303Z,6.50
2022-10-05T21:09:44.672Z,6.40
2022-10-05T21:12:12.542Z,6.60
2022-10-05T21:14:40.568Z,6.72
2022-10-05T21:17:07.755Z,5.25
2022-10-05T21:19:44.255Z,5.60
2022-10-05T21:22:11.941Z,6.18
2022-10-05T21:24:40.793Z,5.97
2022-10-05T21:27:08.344Z,6.53
2022-10-05T21:29:36.452Z,6.28
2022-10-05T21:32:08.574Z,6.30
2022-10-05T21:34:35.798Z,5.60
2022-10-05T21:37:02.803Z,5.50
2022-10-05T21:39:30.357Z,6.70
2022-10-05T21:41:57.370Z,6.05
2022-10-05T21:44:24.329Z,5.78
2022-10-05T21:46:51.910Z,6.75
2022-10-05T21:49:19.856Z,5.87
2022-10-05T21:51:47.568Z,6.28
2022-10-05T21:54:18.597Z,6.62
2022-10-05T21:56:49.456Z,6.35
2022-10-05T21:59:19.233Z,6.68
2022-10-05T22:01:46.330Z,6.12
2022-10-05T22:04:15.022Z,6.80
2022-10-05T22:06:42.118Z,6.35
2022-10-05T22:09:09.460Z,8.15
2022-10-05T22:11:36.775Z,6.80
2022-10-05T22:14:04.124Z,6.72
2022-10-05T22:16:33.731Z,7.32
2022-10-05T22:19:05.929Z,7.00
2022-10-05T22:21:37.850Z,6.53
2022-10-05T22:24:05.539Z,7.18
2022-10-05T22:26:32.881Z,6.70
2022-10-05T22:29:01.713Z,6.22
2022-10-05T22:31:29.132Z,5.78
2022-10-05T22:33:56.161Z,6.32
2022-10-05T22:36:23.218Z,5.72
2022-10-05T22:38:50.554Z,5.50
2022-10-05T22:41:20.527Z,5.32
2022-10-05T22:43:50.105Z,6.00
2022-10-05T22:46:18.342Z,5.20
2022-10-05T22:48:45.507Z,5.50
2022-10-05T22:51:12.657Z,5.75
2022-10-05T22:53:39.949Z,6.28
2022-10-05T23:00:08.300Z,5.93
2022-10-05T23:02:40.170Z,6.25
2022-10-05T23:05:08.261Z,6.43
2022-10-05T23:07:39.928Z,5.85
2022-10-05T23:10:08.209Z,7.37
2022-10-05T23:12:35.478Z,6.93
2022-10-05T23:15:02.640Z,7.28
2022-10-05T23:17:30.390Z,7.10
2022-10-05T23:19:57.941Z,6.37
2022-10-05T23:22:25.382Z,6.55
2022-10-05T23:24:52.493Z,7.70
2022-10-05T23:27:20.109Z,6.50
2022-10-05T23:29:47.150Z,7.45
2022-10-05T23:32:14.199Z,6.60
2022-10-05T23:34:41.496Z,6.87
2022-10-05T23:37:08.563Z,6.87
2022-10-05T23:39:35.528Z,7.30
2022-10-05T23:42:02.833Z,7.12
2022-10-05T23:44:29.872Z,7.12
2022-10-05T23:46:56.869Z,6.90
2022-10-05T23:49:24.145Z,7.65
2022-10-05T23:51:51.124Z,7.05
2022-10-05T23:54:18.126Z,7.87
2022-10-05T23:56:45.422Z,7.20
2022-10-05T23:59:12.399Z,7.78
